createdAt,value
2018-03-27T00:02:04.741Z,10.40
2018-03-27T00:07:07.985Z,13.62
2018-03-27T00:12:12.068Z,10.18
2018-03-27T00:17:15.320Z,11.30
2018-03-27T00:22:18.842Z,11.70
2018-03-27T00:27:34.196Z,11.98
2018-03-27T00:32:48.855Z,10.82
2018-03-27T00:38:03.410Z,9.98
2018-03-27T00:43:15.776Z,13.77
2018-03-27T00:48:18.566Z,12.85
2018-03-27T00:53:21.495Z,12.00
2018-03-27T00:58:24.442Z,10.20
2018-03-27T01:03:27.184Z,11.10
2018-03-27T01:08:30.500Z,10.90
2018-03-27T01:13:33.556Z,10.00
2018-03-27T01:18:37.027Z,10.20
2018-03-27T01:23:39.855Z,10.10
2018-03-27T01:28:43.404Z,10.52
2018-03-27T01:33:46.445Z,10.88
2018-03-27T01:38:50.498Z,12.37
2018-03-27T01:43:53.311Z,10.75
2018-03-27T01:48:56.337Z,12.90
2018-03-27T01:53:59.111Z,11.52
2018-03-27T01:59:01.941Z,10.03
2018-03-27T02:04:05.648Z,11.77
2018-03-27T02:09:08.858Z,13.15
2018-03-27T02:14:17.897Z,9.70
2018-03-27T02:19:26.471Z,11.77
2018-03-27T02:24:30.975Z,10.53
2018-03-27T02:29:33.777Z,10.57
2018-03-27T02:34:36.577Z,11.70
2018-03-27T02:39:39.326Z,10.82
2018-03-27T02:44:42.886Z,10.02
2018-03-27T02:49:46.409Z,10.88
2018-03-27T02:54:50.027Z,11.45
2018-03-27T02:59:54.330Z,11.30
2018-03-27T03:04:58.200Z,13.83
2018-03-27T03:10:01.077Z,11.50
2018-03-27T03:15:03.877Z,10.82
2018-03-27T03:20:06.666Z,14.02
2018-03-27T03:25:09.412Z,11.13
2018-03-27T03:30:12.207Z,13.00
2018-03-27T03:35:14.985Z,13.50
2018-03-27T03:40:17.741Z,10.67
2018-03-27T03:45:20.518Z,11.38
2018-03-27T03:50:24.033Z,13.77
2018-03-27T03:55:27.578Z,10.93
2018-03-27T04:00:30.355Z,11.10
2018-03-27T04:05:33.884Z,10.93
2018-03-27T04:10:36.677Z,11.90
2018-03-27T04:15:39.984Z,12.50
2018-03-27T04:20:43.520Z,12.75
2018-03-27T04:25:46.282Z,13.07
2018-03-27T04:30:49.821Z,14.68
2018-03-27T04:35:52.862Z,13.05
2018-03-27T04:40:55.768Z,11.77
2018-03-27T04:45:58.576Z,15.63
2018-03-27T04:51:01.382Z,14.05
2018-03-27T04:56:04.167Z,13.00
2018-03-27T05:01:06.931Z,12.88
2018-03-27T05:06:09.733Z,12.73
2018-03-27T05:11:12.503Z,12.05
2018-03-27T05:16:17.182Z,16.10
2018-03-27T05:21:19.946Z,16.13
2018-03-27T05:26:23.517Z,13.45
2018-03-27T05:31:26.283Z,16.73
2018-03-27T05:36:29.055Z,18.65
2018-03-27T05:41:32.691Z,21.92
2018-03-27T05:46:35.533Z,22.87
2018-03-27T05:51:38.372Z,21.48
2018-03-27T05:56:41.917Z,21.15
2018-03-27T06:01:44.714Z,21.67
2018-03-27T06:06:47.515Z,21.08
2018-03-27T06:11:50.377Z,18.20
2018-03-27T06:16:53.452Z,21.45
2018-03-27T06:21:56.216Z,21.60
2018-03-27T06:26:58.988Z,20.40
2018-03-27T06:32:02.512Z,31.50
2018-03-27T06:37:05.268Z,23.60
2018-03-27T06:42:08.103Z,21.23
2018-03-27T06:47:10.853Z,21.00
2018-03-27T06:52:13.668Z,20.30
2018-03-27T06:57:16.481Z,23.98
2018-03-27T07:02:19.275Z,29.48
2018-03-27T07:07:22.040Z,30.27
2018-03-27T07:12:25.152Z,25.30
2018-03-27T07:17:27.969Z,28.10
2018-03-27T07:22:30.725Z,26.03
2018-03-27T07:27:33.509Z,30.83
2018-03-27T07:32:36.271Z,30.70
2018-03-27T07:37:39.059Z,29.55
2018-03-27T07:42:42.155Z,29.00
2018-03-27T07:47:44.915Z,28.20
2018-03-27T07:52:47.958Z,27.07
2018-03-27T07:57:50.985Z,28.35
2018-03-27T08:02:53.754Z,30.10
2018-03-27T08:07:56.832Z,29.87
2018-03-27T08:12:59.672Z,24.53
2018-03-27T08:18:03.281Z,27.33
2018-03-27T08:23:06.151Z,27.70
2018-03-27T08:28:09.012Z,30.37
2018-03-27T08:33:11.795Z,28.95
2018-03-27T08:38:15.565Z,26.33
2018-03-27T08:43:19.933Z,23.77
2018-03-27T08:48:22.760Z,25.80
2018-03-27T08:53:26.344Z,24.70
2018-03-27T08:58:29.263Z,20.93
2018-03-27T09:03:32.062Z,20.12
2018-03-27T09:08:35.155Z,21.87
2018-03-27T09:13:38.261Z,20.83
2018-03-27T09:18:41.313Z,18.30
2018-03-27T09:23:44.380Z,18.20
2018-03-27T09:28:47.296Z,18.00
2018-03-27T09:33:51.258Z,20.88
2018-03-27T09:38:54.072Z,16.70
2018-03-27T09:43:57.114Z,16.70
2018-03-27T09:49:00.009Z,15.80
2018-03-27T09:54:02.817Z,16.58
2018-03-27T09:59:05.675Z,19.30
2018-03-27T10:04:08.825Z,15.98
2018-03-27T10:09:12.419Z,19.80
2018-03-27T10:14:15.292Z,15.48
2018-03-27T10:19:18.097Z,16.60
2018-03-27T10:24:20.914Z,16.97
2018-03-27T10:29:23.923Z,17.10
2018-03-27T10:34:26.717Z,20.05
2018-03-27T10:39:29.501Z,21.35
2018-03-27T10:44:32.308Z,25.10
2018-03-27T10:49:35.347Z,27.70
2018-03-27T10:54:38.269Z,25.83
2018-03-27T10:59:41.061Z,25.45
2018-03-27T11:04:43.903Z,23.50
2018-03-27T11:09:46.706Z,25.95
2018-03-27T11:14:49.928Z,26.20
2018-03-27T11:19:53.354Z,26.08
2018-03-27T11:24:56.345Z,25.10
2018-03-27T11:29:59.439Z,25.90
2018-03-27T11:35:02.675Z,27.27
2018-03-27T11:40:06.005Z,24.20
2018-03-27T11:45:09.088Z,21.23
2018-03-27T11:50:11.930Z,21.42
2018-03-27T11:55:15.486Z,20.30
2018-03-27T12:00:18.283Z,20.67
2018-03-27T12:05:21.082Z,20.97
2018-03-27T12:10:24.177Z,20.85
2018-03-27T12:15:27.000Z,23.90
2018-03-27T12:20:29.820Z,21.67
2018-03-27T12:25:32.686Z,24.77
2018-03-27T12:30:35.568Z,22.30
2018-03-27T12:35:38.393Z,22.62
2018-03-27T12:40:41.303Z,21.10
2018-03-27T12:45:44.111Z,22.45
2018-03-27T12:50:46.961Z,22.15
2018-03-27T12:55:50.583Z,23.33
2018-03-27T13:00:54.234Z,20.65
2018-03-27T13:05:57.855Z,19.90
2018-03-27T13:11:00.734Z,20.55
2018-03-27T13:16:03.620Z,19.90
2018-03-27T13:21:07.356Z,22.48
2018-03-27T13:26:10.273Z,20.95
2018-03-27T13:31:13.102Z,20.40
2018-03-27T13:36:16.014Z,19.73
2018-03-27T13:41:18.962Z,22.15
2018-03-27T13:46:21.936Z,19.93
2018-03-27T13:51:25.604Z,20.10
2018-03-27T13:56:28.462Z,19.33
2018-03-27T14:01:32.643Z,20.90
2018-03-27T14:06:36.916Z,25.37
2018-03-27T14:11:39.727Z,23.45
2018-03-27T14:16:43.585Z,20.80
2018-03-27T14:21:46.742Z,20.27
2018-03-27T14:26:50.679Z,20.95
2018-03-27T14:31:55.142Z,21.90
2018-03-27T14:36:58.689Z,21.95
2018-03-27T14:42:01.502Z,22.33
2018-03-27T14:47:04.349Z,21.83
2018-03-27T14:52:07.948Z,20.05
2018-03-27T14:57:11.686Z,20.77
2018-03-27T15:02:15.340Z,24.08
2018-03-27T15:07:18.230Z,23.67
2018-03-27T15:12:21.099Z,21.70
2018-03-27T15:17:24.752Z,22.83
2018-03-27T15:22:27.601Z,26.15
2018-03-27T15:27:30.418Z,23.10
2018-03-27T15:32:34.024Z,22.70
2018-03-27T15:37:37.679Z,23.90
2018-03-27T15:42:40.469Z,22.23
2018-03-27T15:47:44.090Z,22.87
2018-03-27T15:52:47.690Z,24.37
2018-03-27T15:57:51.275Z,20.98
2018-03-27T16:02:54.070Z,22.83
2018-03-27T16:07:56.888Z,23.17
2018-03-27T16:12:59.996Z,35.00
2018-03-27T16:18:03.575Z,21.75
2018-03-27T16:23:06.381Z,29.45
2018-03-27T16:28:09.177Z,28.75
2018-03-27T16:33:12.146Z,32.40
2018-03-27T16:38:15.037Z,32.58
2018-03-27T16:43:18.646Z,32.70
2018-03-27T16:48:21.465Z,32.57
2018-03-27T16:53:25.226Z,32.70
2018-03-27T16:58:28.417Z,33.40
2018-03-27T17:03:31.454Z,33.03
2018-03-27T17:08:34.248Z,33.47
2018-03-27T17:13:37.242Z,34.30
2018-03-27T17:18:40.071Z,30.33
2018-03-27T17:23:43.319Z,29.12
2018-03-27T17:28:46.200Z,32.08
2018-03-27T17:33:49.025Z,30.40
2018-03-27T17:38:51.810Z,30.77
2018-03-27T17:43:55.348Z,35.05
2018-03-27T17:48:58.110Z,32.03
2018-03-27T17:54:03.208Z,28.50
2018-03-27T17:59:06.052Z,34.67
2018-03-27T18:04:08.870Z,33.70
2018-03-27T18:09:12.469Z,34.50
2018-03-27T18:14:15.257Z,32.97
2018-03-27T18:19:18.097Z,34.25
2018-03-27T18:24:21.661Z,34.28
2018-03-27T18:29:24.496Z,32.92
2018-03-27T18:34:28.068Z,32.05
2018-03-27T18:39:30.895Z,37.35
2018-03-27T18:44:33.730Z,32.97
2018-03-27T18:49:36.668Z,32.65
2018-03-27T18:54:40.428Z,33.53
2018-03-27T18:59:43.230Z,31.20
2018-03-27T19:04:46.551Z,30.90
2018-03-27T19:09:49.473Z,31.02
2018-03-27T19:14:53.295Z,30.70
2018-03-27T19:19:56.075Z,30.20
2018-03-27T19:24:59.700Z,29.67
2018-03-27T19:30:03.505Z,29.95
2018-03-27T19:35:06.396Z,30.73
2018-03-27T19:40:09.290Z,31.90
2018-03-27T19:45:13.080Z,33.25
2018-03-27T19:50:21.033Z,31.08
2018-03-27T19:55:23.933Z,34.90
2018-03-27T20:00:28.009Z,35.45
2018-03-27T20:05:30.792Z,34.10
2018-03-27T20:10:34.342Z,38.75
2018-03-27T20:15:41.706Z,35.63
2018-03-27T20:20:40.485Z,41.58
2018-03-27T20:25:43.613Z,39.17
2018-03-27T20:30:46.526Z,40.60
2018-03-27T20:35:50.408Z,41.65
2018-03-27T20:40:53.211Z,40.78
2018-03-27T20:45:56.054Z,38.50
2018-03-27T20:50:59.649Z,44.33
2018-03-27T20:56:02.549Z,41.03
2018-03-27T21:01:05.376Z,46.73
2018-03-27T21:06:08.198Z,46.85
2018-03-27T21:11:11.280Z,44.27
2018-03-27T21:16:14.185Z,45.53
2018-03-27T21:21:17.804Z,41.90
2018-03-27T21:26:30.303Z,42.70
2018-03-27T21:31:33.326Z,43.97
2018-03-27T21:36:37.955Z,45.40
2018-03-27T21:41:41.592Z,44.27
2018-03-27T21:46:45.236Z,48.87
2018-03-27T21:51:48.753Z,47.90
2018-03-27T21:56:51.988Z,46.17
2018-03-27T22:01:54.850Z,49.47
2018-03-27T22:06:58.056Z,49.17
2018-03-27T22:12:01.001Z,44.72
2018-03-27T22:17:03.893Z,43.40
2018-03-27T22:22:06.744Z,38.95
2018-03-27T22:27:09.840Z,38.53
2018-03-27T22:32:14.547Z,39.23
2018-03-27T22:37:18.284Z,37.22
2018-03-27T22:42:21.402Z,40.65
2018-03-27T22:47:24.316Z,36.85
2018-03-27T22:52:27.883Z,34.47
2018-03-27T22:57:31.408Z,33.58
2018-03-27T23:02:34.180Z,33.78
2018-03-27T23:07:36.970Z,34.88
2018-03-27T23:12:39.736Z,34.40
2018-03-27T23:17:43.694Z,38.25
2018-03-27T23:22:47.361Z,33.80
2018-03-27T23:27:51.656Z,36.17
2018-03-27T23:32:55.381Z,37.05
2018-03-27T23:37:58.528Z,37.85
2018-03-27T23:43:01.888Z,36.78
2018-03-27T23:48:04.899Z,38.42
2018-03-27T23:53:08.501Z,40.60
2018-03-27T23:58:11.293Z,38.55
